createdAt,value
2019-01-25T00:01:18.609Z,43.20
2019-01-25T00:03:45.719Z,40.20
2019-01-25T00:06:12.792Z,42.03
2019-01-25T00:08:39.852Z,46.28
2019-01-25T00:11:07.201Z,42.85
2019-01-25T00:13:34.527Z,46.88
2019-01-25T00:16:01.823Z,50.55
2019-01-25T00:18:28.804Z,45.30
2019-01-25T00:20:55.977Z,46.88
2019-01-25T00:23:23.366Z,47.48
2019-01-25T00:25:50.384Z,49.27
2019-01-25T00:28:17.469Z,48.85
2019-01-25T00:30:44.481Z,47.17
2019-01-25T00:33:11.566Z,43.70
2019-01-25T00:35:38.589Z,44.63
2019-01-25T00:38:05.496Z,48.68
2019-01-25T00:40:32.582Z,43.83
2019-01-25T00:42:59.485Z,45.50
2019-01-25T00:45:26.490Z,56.45
2019-01-25T00:47:53.381Z,46.35
2019-01-25T00:50:20.457Z,44.67
2019-01-25T00:52:47.725Z,51.20
2019-01-25T00:55:14.798Z,50.98
2019-01-25T00:57:42.116Z,43.17
2019-01-25T01:00:13.561Z,51.60
2019-01-25T01:02:40.722Z,47.10
2019-01-25T01:05:07.922Z,44.88
2019-01-25T01:07:34.881Z,45.70
2019-01-25T01:10:01.825Z,48.55
2019-01-25T01:12:28.911Z,53.75
2019-01-25T01:14:55.923Z,48.52
2019-01-25T01:17:22.997Z,47.75
2019-01-25T01:19:49.970Z,52.00
2019-01-25T01:22:16.934Z,45.40
2019-01-25T01:24:43.892Z,47.53
2019-01-25T01:27:10.829Z,50.55
2019-01-25T01:29:37.750Z,52.30
2019-01-25T01:32:04.646Z,44.18
2019-01-25T01:34:31.612Z,48.90
2019-01-25T01:36:58.501Z,50.12
2019-01-25T01:39:25.515Z,46.70
2019-01-25T01:41:52.528Z,46.58
2019-01-25T01:44:19.460Z,48.63
2019-01-25T01:46:46.372Z,49.65
2019-01-25T01:49:13.395Z,47.53
2019-01-25T01:51:40.396Z,46.85
2019-01-25T01:54:07.341Z,40.65
2019-01-25T01:56:34.280Z,44.58
2019-01-25T01:59:01.313Z,50.03
2019-01-25T02:01:28.293Z,46.48
2019-01-25T02:03:55.337Z,48.65
2019-01-25T02:06:22.320Z,52.45
2019-01-25T02:08:49.375Z,50.33
2019-01-25T02:11:16.355Z,48.40
2019-01-25T02:13:43.355Z,46.00
2019-01-25T02:16:10.418Z,44.45
2019-01-25T02:18:37.381Z,43.00
2019-01-25T02:21:04.946Z,52.10
2019-01-25T02:23:31.913Z,46.50
2019-01-25T02:25:59.027Z,50.90
2019-01-25T02:28:25.926Z,48.65
2019-01-25T02:30:52.967Z,47.43
2019-01-25T02:33:20.018Z,47.62
2019-01-25T02:35:47.023Z,52.70
2019-01-25T02:38:14.107Z,54.55
2019-01-25T02:40:41.125Z,49.63
2019-01-25T02:43:08.060Z,56.58
2019-01-25T02:45:35.213Z,47.38
2019-01-25T02:48:02.526Z,57.13
2019-01-25T02:50:29.604Z,49.88
2019-01-25T02:53:03.732Z,70.47
2019-01-25T02:55:25.356Z,49.33
2019-01-25T02:57:52.393Z,50.10
2019-01-25T03:00:23.860Z,54.55
2019-01-25T03:02:51.342Z,45.50
2019-01-25T03:05:19.873Z,53.65
2019-01-25T03:07:47.211Z,54.80
2019-01-25T03:10:15.027Z,53.75
2019-01-25T03:12:42.041Z,51.63
2019-01-25T03:15:11.869Z,51.68
2019-01-25T03:17:38.893Z,50.73
2019-01-25T03:20:06.363Z,52.75
2019-01-25T03:22:33.413Z,49.05
2019-01-25T03:25:00.346Z,49.18
2019-01-25T03:27:27.347Z,53.73
2019-01-25T03:29:54.345Z,51.45
2019-01-25T03:32:21.313Z,55.50
2019-01-25T03:34:48.327Z,43.87
2019-01-25T03:37:15.560Z,47.75
2019-01-25T03:39:42.453Z,54.55
2019-01-25T03:42:09.553Z,53.23
2019-01-25T03:44:36.651Z,60.58
2019-01-25T03:47:03.644Z,53.00
2019-01-25T03:49:30.653Z,57.48
2019-01-25T03:51:57.695Z,55.20
2019-01-25T03:54:24.758Z,50.98
2019-01-25T03:56:51.789Z,52.10
2019-01-25T03:59:18.839Z,56.90
2019-01-25T04:01:45.852Z,50.48
2019-01-25T04:04:12.922Z,51.18
2019-01-25T04:06:39.939Z,51.48
2019-01-25T04:09:08.274Z,54.53
2019-01-25T04:11:35.780Z,55.15
2019-01-25T04:14:03.010Z,56.58
2019-01-25T04:16:30.112Z,53.78
2019-01-25T04:18:57.081Z,55.73
2019-01-25T04:21:24.221Z,50.52
2019-01-25T04:23:51.226Z,49.58
2019-01-25T04:26:18.313Z,55.20
2019-01-25T04:28:45.361Z,55.88
2019-01-25T04:31:12.469Z,56.00
2019-01-25T04:33:39.553Z,50.75
2019-01-25T04:36:06.661Z,51.95
2019-01-25T04:38:33.667Z,62.88
2019-01-25T04:41:00.772Z,49.75
2019-01-25T04:43:27.721Z,54.25
2019-01-25T04:45:54.762Z,53.80
2019-01-25T04:48:21.760Z,52.93
2019-01-25T04:50:49.170Z,52.38
2019-01-25T04:53:19.317Z,53.52
2019-01-25T04:55:46.393Z,57.05
2019-01-25T04:58:17.229Z,58.48
2019-01-25T05:00:44.964Z,72.30
2019-01-25T05:03:12.287Z,60.80
2019-01-25T05:05:39.488Z,55.85
2019-01-25T05:08:11.494Z,59.10
2019-01-25T05:10:38.839Z,52.80
2019-01-25T05:13:06.589Z,53.08
2019-01-25T05:15:33.580Z,60.43
2019-01-25T05:18:00.617Z,54.70
2019-01-25T05:20:27.588Z,53.45
2019-01-25T05:22:56.291Z,58.45
2019-01-25T05:25:24.434Z,56.00
2019-01-25T05:27:51.816Z,60.12
2019-01-25T05:30:19.030Z,57.00
2019-01-25T05:32:46.022Z,61.18
2019-01-25T05:35:12.959Z,53.40
2019-01-25T05:37:39.915Z,61.90
2019-01-25T05:40:07.650Z,66.35
2019-01-25T05:42:34.715Z,62.33
2019-01-25T05:45:08.473Z,62.58
2019-01-25T05:47:35.488Z,64.65
2019-01-25T05:50:03.217Z,57.55
2019-01-25T05:52:30.223Z,58.63
2019-01-25T05:54:57.354Z,54.70
2019-01-25T05:57:24.577Z,58.15
2019-01-25T05:59:51.865Z,58.35
2019-01-25T06:02:18.807Z,66.80
2019-01-25T06:04:45.771Z,53.30
2019-01-25T06:07:12.868Z,61.28
2019-01-25T06:09:39.780Z,63.87
2019-01-25T06:12:06.850Z,53.90
2019-01-25T06:14:35.441Z,54.83
2019-01-25T06:17:02.419Z,58.48
2019-01-25T06:19:37.184Z,54.27
2019-01-25T06:22:04.459Z,55.48
2019-01-25T06:24:31.416Z,57.43
2019-01-25T06:26:58.455Z,61.90
2019-01-25T06:29:30.174Z,59.83
2019-01-25T06:31:58.524Z,62.62
2019-01-25T06:34:25.520Z,67.70
2019-01-25T06:36:52.726Z,56.70
2019-01-25T06:39:19.832Z,66.45
2019-01-25T06:41:48.117Z,60.85
2019-01-25T06:44:15.120Z,63.15
2019-01-25T06:46:44.047Z,62.60
2019-01-25T06:49:11.064Z,59.35
2019-01-25T06:51:38.139Z,64.05
2019-01-25T06:54:05.061Z,62.27
2019-01-25T06:56:32.095Z,66.42
2019-01-25T06:59:10.249Z,60.58
2019-01-25T07:01:39.391Z,61.08
2019-01-25T07:04:06.395Z,56.58
2019-01-25T07:06:33.337Z,61.90
2019-01-25T07:09:00.338Z,61.20
2019-01-25T07:11:27.316Z,60.50
2019-01-25T07:13:54.366Z,61.00
2019-01-25T07:16:21.405Z,60.83
2019-01-25T07:18:48.346Z,67.47
2019-01-25T07:21:15.293Z,65.90
2019-01-25T07:23:42.450Z,64.07
2019-01-25T07:26:09.445Z,59.70
2019-01-25T07:28:36.602Z,66.85
2019-01-25T07:31:03.770Z,58.13
2019-01-25T07:33:30.837Z,59.13
2019-01-25T07:35:58.263Z,62.85
2019-01-25T07:38:25.239Z,60.78
2019-01-25T07:40:52.305Z,61.58
2019-01-25T07:43:19.376Z,61.95
2019-01-25T07:45:46.486Z,67.05
2019-01-25T07:48:13.508Z,77.10
2019-01-25T07:50:40.569Z,81.05
2019-01-25T07:53:07.670Z,73.17
2019-01-25T07:55:34.692Z,66.17
2019-01-25T07:58:01.681Z,69.32
2019-01-25T08:00:28.773Z,63.68
2019-01-25T08:02:55.764Z,65.72
2019-01-25T08:05:22.832Z,61.05
2019-01-25T08:07:49.973Z,64.00
2019-01-25T08:10:17.040Z,72.85
2019-01-25T08:12:44.070Z,61.90
2019-01-25T08:15:13.644Z,71.53
2019-01-25T08:17:40.845Z,67.67
2019-01-25T08:20:08.403Z,69.90
2019-01-25T08:22:35.409Z,60.08
2019-01-25T08:25:03.264Z,59.93
2019-01-25T08:27:30.280Z,62.75
2019-01-25T08:29:57.602Z,65.92
2019-01-25T08:32:24.677Z,71.42
2019-01-25T08:34:52.793Z,71.30
2019-01-25T08:37:19.695Z,65.90
2019-01-25T08:39:46.753Z,77.60
2019-01-25T08:42:15.574Z,76.25
2019-01-25T08:44:42.489Z,56.15
2019-01-25T08:47:09.500Z,65.70
2019-01-25T08:49:36.695Z,66.80
2019-01-25T08:52:03.917Z,70.65
2019-01-25T08:54:30.988Z,81.22
2019-01-25T08:56:58.123Z,60.40
2019-01-25T08:59:25.193Z,58.10
2019-01-25T09:01:52.333Z,63.60
2019-01-25T09:04:19.339Z,64.92
2019-01-25T09:06:46.345Z,69.40
2019-01-25T09:09:13.423Z,64.12
2019-01-25T09:11:40.441Z,67.15
2019-01-25T09:14:07.523Z,70.25
2019-01-25T09:16:34.641Z,67.05
2019-01-25T09:19:01.555Z,59.85
2019-01-25T09:21:28.648Z,72.12
2019-01-25T09:23:55.979Z,72.40
2019-01-25T09:26:22.975Z,77.70
2019-01-25T09:28:49.925Z,68.50
2019-01-25T09:31:16.821Z,77.35
2019-01-25T09:33:43.861Z,63.35
2019-01-25T09:36:10.934Z,71.75
2019-01-25T09:38:37.925Z,64.95
2019-01-25T09:41:05.099Z,69.12
2019-01-25T09:43:32.128Z,72.95
2019-01-25T09:45:59.060Z,70.08
2019-01-25T09:48:26.230Z,80.10
2019-01-25T09:50:53.351Z,78.10
2019-01-25T09:53:20.342Z,78.62
2019-01-25T09:55:47.378Z,87.90
2019-01-25T09:58:16.059Z,75.65
2019-01-25T10:00:49.226Z,82.10
2019-01-25T10:03:16.145Z,81.00
2019-01-25T10:05:43.184Z,96.45
2019-01-25T10:08:10.089Z,70.72
2019-01-25T10:10:37.181Z,71.95
2019-01-25T10:13:04.545Z,66.80
2019-01-25T10:15:31.534Z,73.78
2019-01-25T10:17:58.588Z,72.37
2019-01-25T10:20:26.741Z,76.80
2019-01-25T10:22:53.809Z,73.05
2019-01-25T10:25:20.830Z,72.97
2019-01-25T10:27:47.772Z,75.70
2019-01-25T10:30:17.433Z,77.67
2019-01-25T10:32:44.405Z,90.17
2019-01-25T10:35:11.598Z,78.30
2019-01-25T10:37:38.542Z,74.97
2019-01-25T10:40:08.478Z,85.32
2019-01-25T10:42:35.638Z,88.55
2019-01-25T10:45:04.678Z,74.85
2019-01-25T10:47:31.948Z,80.30
2019-01-25T10:49:59.302Z,81.12
2019-01-25T10:52:26.499Z,70.92
2019-01-25T10:54:53.604Z,71.02
2019-01-25T10:57:20.526Z,74.12
2019-01-25T10:59:47.714Z,82.10
2019-01-25T11:02:14.712Z,74.42
2019-01-25T11:04:41.605Z,82.35
2019-01-25T11:07:08.786Z,76.57
2019-01-25T11:09:38.074Z,72.78
2019-01-25T11:12:04.728Z,76.55
2019-01-25T11:14:31.768Z,81.67
2019-01-25T11:16:58.690Z,83.37
2019-01-25T11:19:25.669Z,97.08
2019-01-25T11:21:52.713Z,108.80
2019-01-25T11:24:19.808Z,101.45
2019-01-25T11:26:46.832Z,100.18
2019-01-25T11:29:13.825Z,95.30
2019-01-25T11:31:40.878Z,99.22
2019-01-25T11:34:09.883Z,93.70
2019-01-25T11:36:37.019Z,92.80
2019-01-25T11:39:07.959Z,86.97
2019-01-25T11:41:35.114Z,83.40
2019-01-25T11:44:02.192Z,82.05
2019-01-25T11:46:29.409Z,79.85
2019-01-25T11:48:56.388Z,82.12
2019-01-25T11:51:23.436Z,81.37
2019-01-25T11:53:50.581Z,79.10
2019-01-25T11:56:17.689Z,76.17
2019-01-25T11:58:44.745Z,68.33
2019-01-25T12:01:11.928Z,77.95
2019-01-25T12:03:38.857Z,75.45
2019-01-25T12:06:05.817Z,76.65
2019-01-25T12:08:32.767Z,81.60
2019-01-25T12:10:59.810Z,73.62
2019-01-25T12:13:26.821Z,74.90
2019-01-25T12:15:53.811Z,77.78
2019-01-25T12:18:21.022Z,83.65
2019-01-25T12:20:54.169Z,77.47
2019-01-25T12:23:21.482Z,74.30
2019-01-25T12:25:48.457Z,78.47
2019-01-25T12:28:15.667Z,75.03
2019-01-25T12:30:42.779Z,74.10
2019-01-25T12:33:09.846Z,77.80
2019-01-25T12:35:41.601Z,77.15
2019-01-25T12:38:08.697Z,80.80
2019-01-25T12:40:35.809Z,79.97
2019-01-25T12:43:02.784Z,74.90
2019-01-25T12:45:29.945Z,78.10
2019-01-25T12:47:56.918Z,70.00
2019-01-25T12:50:29.276Z,65.70
2019-01-25T12:52:56.841Z,74.32
2019-01-25T12:55:24.102Z,70.97
2019-01-25T12:57:51.119Z,73.15
2019-01-25T13:00:20.116Z,74.67
2019-01-25T13:02:47.174Z,75.00
2019-01-25T13:05:14.957Z,73.05
2019-01-25T13:07:41.957Z,72.90
2019-01-25T13:10:10.880Z,75.10
2019-01-25T13:12:37.855Z,76.72
2019-01-25T13:15:05.477Z,77.27
2019-01-25T13:17:32.567Z,76.85
2019-01-25T13:19:59.610Z,76.80
2019-01-25T13:22:26.645Z,67.37
2019-01-25T13:24:53.693Z,70.70
2019-01-25T13:27:20.742Z,72.22
2019-01-25T13:29:47.636Z,84.75
2019-01-25T13:32:14.990Z,70.15
2019-01-25T13:34:42.209Z,74.72
2019-01-25T13:37:09.225Z,72.90
2019-01-25T13:39:36.562Z,73.65
2019-01-25T13:42:03.728Z,74.87
2019-01-25T13:44:30.695Z,77.67
2019-01-25T13:46:57.628Z,74.10
2019-01-25T13:49:24.592Z,73.33
2019-01-25T13:51:51.573Z,76.80
2019-01-25T13:54:18.746Z,79.40
2019-01-25T13:56:48.974Z,75.37
2019-01-25T13:59:15.921Z,61.05
2019-01-25T14:01:42.864Z,72.10
2019-01-25T14:04:09.849Z,65.42
2019-01-25T14:06:36.956Z,75.62
2019-01-25T14:09:06.957Z,66.47
2019-01-25T14:11:34.042Z,68.50
2019-01-25T14:14:01.177Z,69.77
2019-01-25T14:16:28.268Z,70.03
2019-01-25T14:18:55.345Z,69.37
2019-01-25T14:21:22.407Z,63.02
2019-01-25T14:23:49.307Z,63.65
2019-01-25T14:26:16.290Z,66.60
2019-01-25T14:28:43.375Z,74.97
2019-01-25T14:31:10.632Z,68.90
2019-01-25T14:33:37.670Z,70.72
2019-01-25T14:36:04.668Z,70.10
2019-01-25T14:38:31.618Z,66.02
2019-01-25T14:40:58.673Z,65.85
2019-01-25T14:43:25.749Z,71.30
2019-01-25T14:45:52.789Z,77.47
2019-01-25T14:48:19.720Z,77.97
2019-01-25T14:50:46.813Z,65.55
2019-01-25T14:53:13.776Z,74.27
2019-01-25T14:55:40.799Z,71.55
2019-01-25T14:58:07.842Z,76.15
2019-01-25T15:00:34.865Z,74.00
2019-01-25T15:03:01.755Z,70.70
2019-01-25T15:05:28.755Z,70.30
2019-01-25T15:07:55.857Z,72.85
2019-01-25T15:10:23.788Z,66.50
2019-01-25T15:12:54.075Z,68.12
2019-01-25T15:15:21.224Z,64.75
2019-01-25T15:17:48.378Z,71.12
2019-01-25T15:20:17.615Z,61.65
2019-01-25T15:22:44.665Z,62.30
2019-01-25T15:25:12.078Z,49.67
2019-01-25T15:27:39.220Z,47.62
2019-01-25T15:30:09.064Z,47.75
2019-01-25T15:32:36.214Z,53.40
2019-01-25T15:35:04.615Z,49.50
2019-01-25T15:37:31.604Z,63.38
2019-01-25T15:39:58.715Z,54.23
2019-01-25T15:42:25.656Z,54.18
2019-01-25T15:44:52.784Z,56.60
2019-01-25T15:47:19.824Z,55.30
2019-01-25T15:49:46.848Z,60.17
2019-01-25T15:52:13.829Z,55.92
2019-01-25T15:54:40.813Z,46.50
2019-01-25T15:57:07.868Z,56.65
2019-01-25T15:59:34.848Z,51.88
2019-01-25T16:02:01.919Z,50.30
2019-01-25T16:04:34.779Z,41.75
2019-01-25T16:06:57.809Z,55.17
2019-01-25T16:09:24.713Z,46.10
2019-01-25T16:11:51.865Z,46.88
2019-01-25T16:14:18.837Z,41.42
2019-01-25T16:16:45.979Z,40.58
2019-01-25T16:19:13.045Z,46.20
2019-01-25T16:21:40.040Z,43.15
2019-01-25T16:24:06.930Z,40.15
2019-01-25T16:26:33.997Z,49.53
2019-01-25T16:29:00.989Z,47.62
2019-01-25T16:31:27.949Z,48.10
2019-01-25T16:33:54.951Z,41.83
2019-01-25T16:36:22.232Z,42.05
2019-01-25T16:38:49.208Z,44.03
2019-01-25T16:41:16.130Z,37.38
2019-01-25T16:43:43.073Z,42.83
2019-01-25T16:46:10.074Z,44.73
2019-01-25T16:48:38.212Z,45.12
2019-01-25T16:51:05.337Z,37.63
2019-01-25T16:53:32.736Z,37.45
2019-01-25T16:55:59.775Z,34.25
2019-01-25T16:58:26.861Z,28.92
2019-01-25T17:00:53.956Z,30.60
2019-01-25T17:03:21.008Z,28.20
2019-01-25T17:05:49.742Z,22.62
2019-01-25T17:08:16.788Z,22.42
2019-01-25T17:10:43.685Z,25.97
2019-01-25T17:13:10.754Z,22.42
2019-01-25T17:15:38.053Z,27.70
2019-01-25T17:18:05.100Z,25.65
2019-01-25T17:20:32.409Z,23.42
2019-01-25T17:22:59.320Z,21.15
2019-01-25T17:25:28.399Z,25.45
2019-01-25T17:27:55.587Z,27.90
2019-01-25T17:30:28.073Z,28.25
2019-01-25T17:32:56.476Z,27.65
2019-01-25T17:35:23.593Z,33.75
2019-01-25T17:37:50.853Z,27.30
2019-01-25T17:40:19.345Z,29.10
2019-01-25T17:42:46.440Z,29.65
2019-01-25T17:45:14.414Z,26.20
2019-01-25T17:48:00.901Z,27.40
2019-01-25T17:50:27.985Z,32.48
2019-01-25T17:52:55.109Z,26.75
2019-01-25T17:55:22.184Z,28.02
2019-01-25T17:57:49.623Z,29.70
2019-01-25T18:00:20.771Z,35.33
2019-01-25T18:02:47.742Z,27.15
2019-01-25T18:05:14.806Z,38.02
2019-01-25T18:07:41.984Z,34.88
2019-01-25T18:10:12.322Z,30.82
2019-01-25T18:12:39.554Z,30.70
2019-01-25T18:15:07.867Z,33.33
2019-01-25T18:17:35.014Z,34.60
2019-01-25T18:20:02.656Z,29.55
2019-01-25T18:22:29.658Z,30.32
2019-01-25T18:24:56.769Z,27.27
2019-01-25T18:27:23.877Z,28.38
2019-01-25T18:29:56.372Z,29.20
2019-01-25T18:32:23.281Z,31.77
2019-01-25T18:34:50.275Z,30.15
2019-01-25T18:37:17.245Z,31.62
2019-01-25T18:39:44.378Z,30.55
2019-01-25T18:42:11.337Z,29.70
2019-01-25T18:44:38.314Z,31.05
2019-01-25T18:47:05.322Z,33.60
2019-01-25T18:49:32.325Z,32.23
2019-01-25T18:51:59.378Z,35.92
2019-01-25T18:54:26.439Z,31.15
2019-01-25T18:56:53.982Z,35.43
2019-01-25T18:59:20.906Z,29.98
2019-01-25T19:01:47.880Z,31.30
2019-01-25T19:04:14.877Z,30.43
2019-01-25T19:06:42.006Z,32.45
2019-01-25T19:09:09.485Z,39.08
2019-01-25T19:11:36.975Z,33.73
2019-01-25T19:14:03.963Z,29.63
2019-01-25T19:16:30.951Z,42.48
2019-01-25T19:18:57.954Z,39.55
2019-01-25T19:21:24.847Z,40.48
2019-01-25T19:23:51.917Z,38.75
2019-01-25T19:26:19.606Z,41.73
2019-01-25T19:28:46.773Z,37.30
2019-01-25T19:31:14.304Z,34.10
2019-01-25T19:33:41.377Z,42.25
2019-01-25T19:36:08.323Z,41.68
2019-01-25T19:38:35.295Z,42.27
2019-01-25T19:41:03.079Z,37.65
2019-01-25T19:43:30.118Z,37.48
2019-01-25T19:45:57.262Z,37.25
2019-01-25T19:48:24.281Z,40.00
2019-01-25T19:50:51.358Z,40.50
2019-01-25T19:53:18.588Z,37.93
2019-01-25T19:55:45.857Z,34.83
2019-01-25T19:58:15.493Z,39.10
2019-01-25T20:00:43.228Z,41.73
2019-01-25T20:03:10.420Z,41.28
2019-01-25T20:05:37.463Z,48.42
2019-01-25T20:08:05.130Z,33.75
2019-01-25T20:10:32.360Z,40.83
2019-01-25T20:12:59.580Z,43.02
2019-01-25T20:15:26.851Z,34.33
2019-01-25T20:17:54.012Z,43.78
2019-01-25T20:20:23.284Z,43.17
2019-01-25T20:22:50.674Z,43.10
2019-01-25T20:25:18.029Z,44.77
2019-01-25T20:27:45.244Z,45.90
2019-01-25T20:30:16.094Z,43.33
2019-01-25T20:32:43.196Z,45.35
2019-01-25T20:35:12.257Z,44.88
2019-01-25T20:37:39.251Z,46.77
2019-01-25T20:40:09.349Z,36.10
2019-01-25T20:42:36.444Z,44.33
2019-01-25T20:45:05.363Z,47.13
2019-01-25T20:47:32.412Z,48.25
2019-01-25T20:49:59.404Z,43.42
2019-01-25T20:52:26.403Z,41.75
2019-01-25T20:54:53.388Z,45.73
2019-01-25T20:57:20.321Z,45.05
2019-01-25T20:59:47.603Z,42.85
2019-01-25T21:02:14.760Z,42.33
2019-01-25T21:04:41.758Z,42.08
2019-01-25T21:07:08.728Z,47.03
2019-01-25T21:09:35.744Z,40.25
2019-01-25T21:12:02.981Z,44.93
2019-01-25T21:14:30.024Z,47.73
2019-01-25T21:16:57.071Z,42.90
2019-01-25T21:19:24.537Z,41.63
2019-01-25T21:21:51.530Z,43.42
2019-01-25T21:24:18.446Z,43.80
2019-01-25T21:26:45.401Z,42.73
2019-01-25T21:29:12.435Z,40.52
2019-01-25T21:31:39.496Z,39.53
2019-01-25T21:34:06.495Z,35.03
2019-01-25T21:36:33.583Z,41.77
2019-01-25T21:39:00.725Z,39.35
2019-01-25T21:41:27.771Z,36.42
2019-01-25T21:43:54.798Z,41.02
2019-01-25T21:46:21.953Z,41.28
2019-01-25T21:48:48.937Z,45.00
2019-01-25T21:51:15.967Z,39.55
2019-01-25T21:53:42.989Z,40.28
2019-01-25T21:56:10.016Z,41.37
2019-01-25T21:58:37.115Z,37.45
2019-01-25T22:01:04.175Z,43.85
2019-01-25T22:03:32.052Z,47.58
2019-01-25T22:05:59.229Z,39.10
2019-01-25T22:08:26.189Z,40.03
2019-01-25T22:10:53.623Z,43.78
2019-01-25T22:13:20.813Z,37.48
2019-01-25T22:15:51.088Z,54.33
2019-01-25T22:18:16.713Z,41.50
2019-01-25T22:20:43.718Z,41.42
2019-01-25T22:23:11.043Z,40.73
2019-01-25T22:25:38.445Z,37.20
2019-01-25T22:28:05.523Z,47.78
2019-01-25T22:30:32.719Z,40.28
2019-01-25T22:32:59.737Z,40.65
2019-01-25T22:35:27.143Z,39.90
2019-01-25T22:37:54.392Z,35.50
2019-01-25T22:40:25.975Z,41.70
2019-01-25T22:42:53.004Z,37.40
2019-01-25T22:45:21.830Z,35.25
2019-01-25T22:47:48.915Z,39.00
2019-01-25T22:50:22.534Z,34.10
2019-01-25T22:52:49.433Z,36.15
2019-01-25T22:55:17.963Z,32.93
2019-01-25T22:57:45.205Z,34.78
2019-01-25T23:00:53.507Z,34.50
2019-01-25T23:03:36.452Z,28.95
2019-01-25T23:06:24.736Z,26.15
2019-01-25T23:08:52.059Z,29.45
2019-01-25T23:11:19.103Z,28.60
2019-01-25T23:13:46.206Z,29.42
2019-01-25T23:16:13.925Z,31.68
2019-01-25T23:18:40.921Z,28.70
2019-01-25T23:21:07.948Z,29.70
2019-01-25T23:23:35.014Z,28.07
2019-01-25T23:26:02.980Z,27.20
2019-01-25T23:28:31.941Z,27.10
2019-01-25T23:30:58.866Z,28.92
2019-01-25T23:33:26.462Z,32.38
2019-01-25T23:35:53.563Z,32.65
2019-01-25T23:38:23.241Z,27.10
2019-01-25T23:40:50.391Z,30.95
2019-01-25T23:43:17.519Z,31.50
2019-01-25T23:45:44.725Z,32.03
2019-01-25T23:48:11.767Z,32.50
2019-01-25T23:50:38.814Z,31.50
2019-01-25T23:53:05.845Z,27.32
2019-01-25T23:55:33.028Z,29.02
2019-01-25T23:57:59.960Z,28.55
